createdAt,value
2018-07-03T00:00:13.966Z,25.00
2018-07-03T00:02:42.273Z,24.90
2018-07-03T00:05:10.588Z,24.90
2018-07-03T00:07:38.846Z,24.90
2018-07-03T00:10:09.420Z,24.90
2018-07-03T00:12:37.785Z,24.80
2018-07-03T00:15:06.652Z,24.80
2018-07-03T00:17:35.024Z,24.80
2018-07-03T00:20:03.412Z,24.80
2018-07-03T00:22:31.678Z,24.70
2018-07-03T00:24:59.951Z,24.70
2018-07-03T00:27:28.225Z,24.70
2018-07-03T00:29:56.492Z,24.70
2018-07-03T00:32:24.792Z,24.60
2018-07-03T00:34:53.067Z,24.60
2018-07-03T00:37:21.380Z,24.60
2018-07-03T00:39:49.717Z,24.50
2018-07-03T00:42:18.005Z,24.50
2018-07-03T00:44:46.322Z,24.50
2018-07-03T00:47:14.606Z,24.50
2018-07-03T00:49:43.278Z,24.40
2018-07-03T00:52:11.598Z,24.40
2018-07-03T00:54:39.943Z,24.40
2018-07-03T00:57:08.184Z,24.40
2018-07-03T00:59:46.577Z,24.30
2018-07-03T01:02:14.872Z,24.30
2018-07-03T01:04:43.174Z,24.30
2018-07-03T01:07:11.447Z,24.30
2018-07-03T01:09:39.750Z,24.20
2018-07-03T01:12:08.023Z,24.20
2018-07-03T01:14:36.312Z,24.20
2018-07-03T01:17:04.632Z,24.20
2018-07-03T01:19:32.864Z,24.10
2018-07-03T01:22:01.160Z,24.10
2018-07-03T01:24:29.410Z,24.10
2018-07-03T01:26:57.663Z,24.10
2018-07-03T01:29:25.975Z,24.00
2018-07-03T01:31:54.241Z,24.00
2018-07-03T01:34:22.528Z,24.00
2018-07-03T01:36:50.846Z,23.90
2018-07-03T01:39:19.113Z,23.90
2018-07-03T01:41:47.357Z,23.90
2018-07-03T01:44:15.703Z,23.90
2018-07-03T01:46:43.979Z,23.80
2018-07-03T01:49:12.239Z,23.80
2018-07-03T01:51:40.492Z,23.80
2018-07-03T01:54:08.816Z,23.80
2018-07-03T01:56:37.095Z,23.70
2018-07-03T01:59:05.384Z,23.70
2018-07-03T02:01:33.635Z,23.70
2018-07-03T02:04:01.939Z,23.60
2018-07-03T02:06:30.224Z,23.60
2018-07-03T02:08:58.508Z,23.60
2018-07-03T02:11:27.057Z,23.50
2018-07-03T02:13:55.329Z,23.50
2018-07-03T02:16:23.605Z,23.50
2018-07-03T02:18:51.944Z,23.50
2018-07-03T02:21:20.196Z,23.50
2018-07-03T02:23:48.501Z,23.40
2018-07-03T02:26:16.855Z,23.40
2018-07-03T02:28:45.149Z,23.40
2018-07-03T02:31:13.428Z,23.40
2018-07-03T02:33:41.704Z,23.30
2018-07-03T02:36:10.042Z,23.30
2018-07-03T02:38:38.329Z,23.30
2018-07-03T02:41:07.241Z,23.30
2018-07-03T02:43:36.560Z,23.20
2018-07-03T02:46:05.349Z,23.20
2018-07-03T02:48:33.598Z,23.10
2018-07-03T02:51:01.880Z,23.10
2018-07-03T02:53:30.195Z,23.10
2018-07-03T02:55:58.533Z,23.10
2018-07-03T02:58:26.869Z,23.10
2018-07-03T03:00:55.201Z,23.10
2018-07-03T03:03:23.525Z,23.00
2018-07-03T03:05:51.841Z,23.00
2018-07-03T03:08:20.178Z,23.00
2018-07-03T03:10:48.455Z,22.90
2018-07-03T03:13:16.718Z,22.90
2018-07-03T03:18:12.941Z,22.90
2018-07-03T03:20:41.252Z,22.80
2018-07-03T03:23:09.647Z,22.80
2018-07-03T03:25:37.967Z,22.80
2018-07-03T03:28:06.305Z,22.80
2018-07-03T03:30:34.955Z,22.80
2018-07-03T03:33:04.111Z,22.70
2018-07-03T03:35:32.597Z,22.70
2018-07-03T03:38:01.294Z,22.70
2018-07-03T03:40:29.769Z,22.70
2018-07-03T03:42:58.050Z,22.60
2018-07-03T03:45:26.503Z,22.60
2018-07-03T03:47:54.789Z,22.60
2018-07-03T03:50:23.051Z,22.60
2018-07-03T03:52:51.329Z,22.60
2018-07-03T03:55:19.668Z,22.60
2018-07-03T03:57:47.909Z,22.50
2018-07-03T04:00:16.185Z,22.50
2018-07-03T04:02:44.455Z,22.50
2018-07-03T04:05:13.692Z,22.50
2018-07-03T04:07:41.977Z,22.50
2018-07-03T04:10:10.236Z,22.50
2018-07-03T04:12:38.549Z,22.40
2018-07-03T04:15:06.855Z,22.40
2018-07-03T04:17:36.465Z,22.40
2018-07-03T04:20:06.053Z,22.40
2018-07-03T04:22:35.781Z,22.30
2018-07-03T04:25:04.094Z,22.30
2018-07-03T04:27:32.379Z,22.30
2018-07-03T04:30:00.676Z,22.30
2018-07-03T04:32:28.900Z,22.30
2018-07-03T04:34:57.197Z,22.30
2018-07-03T04:37:26.795Z,22.20
2018-07-03T04:39:55.192Z,22.20
2018-07-03T04:42:23.428Z,22.20
2018-07-03T04:44:51.781Z,22.20
2018-07-03T04:47:20.062Z,22.20
2018-07-03T04:49:48.344Z,22.20
2018-07-03T04:52:16.684Z,22.20
2018-07-03T04:54:44.989Z,22.20
2018-07-03T04:57:13.263Z,22.30
2018-07-03T04:59:41.536Z,22.40
2018-07-03T05:02:09.818Z,22.30
2018-07-03T05:04:38.096Z,22.40
2018-07-03T05:07:06.375Z,22.30
2018-07-03T05:09:34.632Z,22.40
2018-07-03T05:12:02.915Z,22.30
2018-07-03T05:14:31.225Z,22.30
2018-07-03T05:16:59.850Z,22.30
2018-07-03T05:19:29.917Z,22.30
2018-07-03T05:21:58.458Z,22.30
2018-07-03T05:24:26.733Z,22.30
2018-07-03T05:26:55.866Z,22.30
2018-07-03T05:29:24.277Z,22.30
2018-07-03T05:31:52.609Z,22.30
2018-07-03T05:34:20.886Z,22.30
2018-07-03T05:36:49.150Z,22.30
2018-07-03T05:39:17.411Z,22.30
2018-07-03T05:41:45.734Z,22.30
2018-07-03T05:44:14.009Z,22.40
2018-07-03T05:46:42.287Z,22.40
2018-07-03T05:49:10.539Z,22.40
2018-07-03T05:51:38.826Z,22.40
2018-07-03T05:54:07.104Z,22.40
2018-07-03T05:56:35.512Z,22.40
2018-07-03T05:59:03.751Z,22.40
2018-07-03T06:01:32.097Z,22.40
2018-07-03T06:04:00.351Z,22.20
2018-07-03T06:06:28.629Z,22.20
2018-07-03T06:08:56.889Z,22.10
2018-07-03T06:11:25.270Z,22.20
2018-07-03T06:13:54.232Z,22.20
2018-07-03T06:16:22.710Z,22.20
2018-07-03T06:18:51.214Z,22.20
2018-07-03T06:21:19.516Z,22.20
2018-07-03T06:23:47.893Z,22.20
2018-07-03T06:26:16.169Z,22.20
2018-07-03T06:31:12.648Z,22.20
2018-07-03T06:33:40.986Z,22.20
2018-07-03T06:36:09.263Z,22.20
2018-07-03T06:38:37.552Z,22.20
2018-07-03T06:41:05.829Z,22.20
2018-07-03T06:43:34.137Z,22.20
2018-07-03T06:46:02.400Z,22.20
2018-07-03T06:48:30.710Z,22.30
2018-07-03T06:50:59.127Z,22.30
2018-07-03T06:53:27.406Z,22.30
2018-07-03T06:55:55.824Z,22.30
2018-07-03T06:58:24.258Z,22.30
2018-07-03T07:00:52.506Z,22.30
2018-07-03T07:05:48.920Z,22.40
2018-07-03T07:08:17.188Z,22.40
2018-07-03T07:10:45.488Z,22.40
2018-07-03T07:13:13.988Z,22.50
2018-07-03T07:15:43.032Z,22.50
2018-07-03T07:18:11.513Z,22.50
2018-07-03T07:20:39.854Z,22.50
2018-07-03T07:23:08.341Z,22.60
2018-07-03T07:25:36.790Z,22.60
2018-07-03T07:28:05.193Z,22.60
2018-07-03T07:30:33.664Z,22.60
2018-07-03T07:33:02.014Z,22.70
2018-07-03T07:35:30.461Z,22.70
2018-07-03T07:37:58.755Z,22.70
2018-07-03T07:40:27.324Z,22.70
2018-07-03T07:42:55.639Z,22.80
2018-07-03T07:45:23.946Z,22.80
2018-07-03T07:47:52.451Z,22.80
2018-07-03T07:50:20.957Z,22.90
2018-07-03T07:52:49.280Z,22.90
2018-07-03T07:55:17.524Z,22.90
2018-07-03T07:57:45.962Z,22.90
2018-07-03T08:00:15.004Z,23.00
2018-07-03T08:02:43.578Z,23.00
2018-07-03T08:05:12.137Z,23.00
2018-07-03T08:07:40.436Z,23.10
2018-07-03T08:10:08.717Z,23.10
2018-07-03T08:12:37.256Z,23.10
2018-07-03T08:15:06.209Z,23.10
2018-07-03T08:17:34.832Z,23.20
2018-07-03T08:20:03.225Z,23.20
2018-07-03T08:22:31.512Z,23.30
2018-07-03T08:25:00.015Z,23.30
2018-07-03T08:27:28.433Z,23.30
2018-07-03T08:29:56.689Z,23.40
2018-07-03T08:34:53.193Z,23.40
2018-07-03T08:37:21.477Z,23.50
2018-07-03T08:39:49.772Z,23.50
2018-07-03T08:42:18.108Z,23.50
2018-07-03T08:44:46.497Z,23.50
2018-07-03T08:47:14.805Z,23.60
2018-07-03T08:49:43.080Z,23.70
2018-07-03T08:52:11.377Z,23.70
2018-07-03T08:54:40.840Z,23.70
2018-07-03T08:57:09.101Z,23.80
2018-07-03T09:02:05.473Z,23.80
2018-07-03T09:04:33.762Z,23.90
2018-07-03T09:07:02.080Z,23.90
2018-07-03T09:09:30.499Z,23.90
2018-07-03T09:11:58.890Z,24.00
2018-07-03T09:14:27.185Z,24.00
2018-07-03T09:16:55.514Z,24.10
2018-07-03T09:19:24.069Z,24.10
2018-07-03T09:21:52.413Z,24.20
2018-07-03T09:24:20.682Z,24.20
2018-07-03T09:26:48.963Z,24.30
2018-07-03T09:29:17.233Z,24.30
2018-07-03T09:31:46.017Z,24.40
2018-07-03T09:34:14.333Z,24.40
2018-07-03T09:36:42.617Z,24.50
2018-07-03T09:39:11.105Z,24.50
2018-07-03T09:41:40.056Z,24.60
2018-07-03T09:44:08.759Z,24.60
2018-07-03T09:46:37.051Z,24.70
2018-07-03T09:49:06.420Z,24.70
2018-07-03T09:51:34.672Z,24.80
2018-07-03T09:54:03.006Z,24.80
2018-07-03T09:56:32.696Z,24.90
2018-07-03T09:59:01.021Z,24.90
2018-07-03T10:01:29.316Z,25.00
2018-07-03T10:03:57.561Z,25.00
2018-07-03T10:06:26.233Z,25.10
2018-07-03T10:08:54.526Z,25.10
2018-07-03T10:11:22.815Z,25.20
2018-07-03T10:13:51.094Z,25.20
2018-07-03T10:16:19.401Z,25.30
2018-07-03T10:18:48.181Z,25.30
2018-07-03T10:21:16.498Z,25.40
2018-07-03T10:23:44.752Z,25.40
2018-07-03T10:26:13.025Z,25.50
2018-07-03T10:28:41.301Z,25.50
2018-07-03T10:31:09.572Z,25.60
2018-07-03T10:33:37.852Z,25.60
2018-07-03T10:36:06.529Z,25.60
2018-07-03T10:38:34.845Z,25.70
2018-07-03T10:41:03.134Z,25.80
2018-07-03T10:43:31.388Z,25.80
2018-07-03T10:45:59.678Z,25.80
2018-07-03T10:48:28.448Z,25.90
2018-07-03T10:50:56.742Z,26.00
2018-07-03T10:53:25.053Z,26.00
2018-07-03T10:55:53.305Z,26.00
2018-07-03T10:58:21.631Z,26.00
2018-07-03T11:00:49.957Z,26.00
2018-07-03T11:03:18.261Z,26.10
2018-07-03T11:05:46.587Z,26.10
2018-07-03T11:08:14.840Z,26.10
2018-07-03T11:10:43.239Z,26.20
2018-07-03T11:13:11.501Z,26.20
2018-07-03T11:15:39.886Z,26.20
2018-07-03T11:18:08.108Z,26.20
2018-07-03T11:20:36.462Z,26.20
2018-07-03T11:23:04.728Z,26.30
2018-07-03T11:25:32.997Z,26.30
2018-07-03T11:28:01.294Z,26.30
2018-07-03T11:30:29.748Z,26.30
2018-07-03T11:32:58.052Z,26.40
2018-07-03T11:35:26.364Z,26.40
2018-07-03T11:37:54.764Z,26.40
2018-07-03T11:40:23.028Z,26.50
2018-07-03T11:42:51.325Z,26.40
2018-07-03T11:45:19.668Z,26.40
2018-07-03T11:47:47.952Z,26.40
2018-07-03T11:50:16.251Z,26.40
2018-07-03T11:52:44.528Z,26.50
2018-07-03T11:55:12.789Z,26.50
2018-07-03T11:57:41.043Z,26.50
2018-07-03T12:00:09.440Z,26.50
2018-07-03T12:02:37.685Z,26.50
2018-07-03T12:05:06.038Z,26.50
2018-07-03T12:07:34.301Z,26.40
2018-07-03T12:10:02.629Z,26.40
2018-07-03T12:12:30.882Z,26.30
2018-07-03T12:14:59.155Z,26.40
2018-07-03T12:17:27.403Z,26.50
2018-07-03T12:19:55.785Z,26.50
2018-07-03T12:22:23.984Z,26.50
2018-07-03T12:24:52.285Z,26.50
2018-07-03T12:27:20.553Z,26.60
2018-07-03T12:29:48.839Z,26.60
2018-07-03T12:32:17.125Z,26.60
2018-07-03T12:34:45.412Z,26.60
2018-07-03T12:37:13.750Z,26.60
2018-07-03T12:39:42.046Z,26.70
2018-07-03T12:42:10.982Z,26.80
2018-07-03T12:44:39.299Z,26.70
2018-07-03T12:47:07.554Z,26.80
2018-07-03T12:49:35.860Z,26.80
2018-07-03T12:52:04.152Z,26.80
2018-07-03T12:54:32.494Z,26.80
2018-07-03T12:57:00.773Z,26.90
2018-07-03T12:59:29.117Z,26.90
2018-07-03T13:01:57.478Z,26.90
2018-07-03T13:04:25.793Z,26.90
2018-07-03T13:06:54.165Z,27.00
2018-07-03T13:09:22.662Z,27.00
2018-07-03T13:11:51.053Z,27.10
2018-07-03T13:14:19.571Z,27.20
2018-07-03T13:16:48.964Z,27.20
2018-07-03T13:19:17.441Z,27.20
2018-07-03T13:21:45.747Z,27.30
2018-07-03T13:24:14.137Z,27.30
2018-07-03T13:26:42.417Z,27.30
2018-07-03T13:31:38.919Z,27.40
2018-07-03T13:34:07.126Z,27.50
2018-07-03T13:36:35.466Z,27.50
2018-07-03T13:39:05.916Z,27.60
2018-07-03T13:41:34.230Z,27.60
2018-07-03T13:44:02.542Z,27.60
2018-07-03T13:46:30.800Z,27.70
2018-07-03T13:48:59.069Z,27.70
2018-07-03T13:51:27.389Z,27.80
2018-07-03T13:53:55.655Z,27.80
2018-07-03T13:56:23.974Z,27.80
2018-07-03T13:58:52.573Z,27.90
2018-07-03T14:01:21.426Z,27.90
2018-07-03T14:03:49.675Z,27.90
2018-07-03T14:06:18.002Z,28.00
2018-07-03T14:08:46.956Z,28.00
2018-07-03T14:11:15.374Z,28.00
2018-07-03T14:13:43.859Z,28.00
2018-07-03T14:16:12.521Z,28.00
2018-07-03T14:18:40.771Z,28.00
2018-07-03T14:21:09.139Z,28.00
2018-07-03T14:23:37.441Z,28.10
2018-07-03T14:26:05.719Z,28.10
2018-07-03T14:28:34.233Z,28.10
2018-07-03T14:31:02.579Z,28.10
2018-07-03T14:33:30.784Z,28.10
2018-07-03T14:35:59.075Z,28.10
2018-07-03T14:38:27.400Z,28.10
2018-07-03T14:40:55.673Z,28.20
2018-07-03T14:43:23.993Z,28.20
2018-07-03T14:45:52.304Z,28.20
2018-07-03T14:48:20.593Z,28.20
2018-07-03T14:50:48.865Z,28.20
2018-07-03T14:53:17.142Z,28.20
2018-07-03T14:55:45.488Z,28.20
2018-07-03T14:58:13.778Z,28.20
2018-07-03T15:00:42.065Z,28.30
2018-07-03T15:03:10.356Z,28.30
2018-07-03T15:05:38.656Z,28.30
2018-07-03T15:08:06.922Z,28.30
2018-07-03T15:10:35.190Z,28.40
2018-07-03T15:13:04.457Z,28.30
2018-07-03T15:15:32.737Z,28.30
2018-07-03T15:18:00.985Z,28.30
2018-07-03T15:20:29.324Z,28.30
2018-07-03T15:22:58.113Z,28.30
2018-07-03T15:25:26.808Z,28.40
2018-07-03T15:27:55.064Z,28.40
2018-07-03T15:30:23.363Z,28.40
2018-07-03T15:32:51.638Z,28.40
2018-07-03T15:35:19.924Z,28.40
2018-07-03T15:37:48.244Z,28.40
2018-07-03T15:40:16.544Z,28.40
2018-07-03T15:42:44.849Z,28.40
2018-07-03T15:45:14.576Z,28.40
2018-07-03T15:47:42.857Z,28.40
2018-07-03T15:50:12.478Z,28.40
2018-07-03T15:52:40.819Z,28.40
2018-07-03T15:55:10.038Z,28.40
2018-07-03T15:57:38.325Z,28.40
2018-07-03T16:02:35.852Z,28.50
2018-07-03T16:05:17.718Z,28.40
2018-07-03T16:07:57.550Z,28.40
2018-07-03T16:10:26.663Z,28.40
2018-07-03T16:12:55.229Z,28.40
2018-07-03T16:15:23.621Z,28.40
2018-07-03T16:17:52.060Z,28.40
2018-07-03T16:20:25.691Z,28.40
2018-07-03T16:22:53.989Z,28.40
2018-07-03T16:25:22.362Z,28.40
2018-07-03T16:27:50.607Z,28.30
2018-07-03T16:30:18.884Z,28.30
2018-07-03T16:32:47.134Z,28.30
2018-07-03T16:35:15.408Z,28.30
2018-07-03T16:37:43.673Z,28.20
2018-07-03T16:40:11.946Z,28.60
2018-07-03T16:42:40.258Z,29.30
2018-07-03T16:45:08.562Z,30.00
2018-07-03T16:47:36.890Z,30.70
2018-07-03T16:50:05.237Z,31.00
2018-07-03T16:52:33.511Z,31.40
2018-07-03T16:55:01.773Z,31.50
2018-07-03T16:57:30.078Z,31.70
2018-07-03T16:59:58.429Z,31.70
2018-07-03T17:02:26.688Z,32.00
2018-07-03T17:04:54.942Z,32.00
2018-07-03T17:07:23.258Z,32.10
2018-07-03T17:09:51.528Z,32.20
2018-07-03T17:12:19.753Z,32.20
2018-07-03T17:14:48.071Z,32.10
2018-07-03T17:17:16.381Z,32.20
2018-07-03T17:19:44.694Z,32.30
2018-07-03T17:22:13.217Z,32.30
2018-07-03T17:24:41.482Z,32.40
2018-07-03T17:27:09.736Z,32.30
2018-07-03T17:29:38.006Z,32.40
2018-07-03T17:32:06.341Z,32.30
2018-07-03T17:34:34.866Z,32.30
2018-07-03T17:37:03.101Z,32.40
2018-07-03T17:39:42.749Z,32.30
2018-07-03T17:42:22.287Z,32.30
2018-07-03T17:46:00.577Z,32.40
2018-07-03T17:48:28.878Z,32.30
2018-07-03T17:50:57.180Z,32.30
2018-07-03T17:53:25.476Z,32.20
2018-07-03T17:55:54.025Z,32.20
2018-07-03T17:58:22.314Z,32.10
2018-07-03T18:00:50.681Z,32.00
2018-07-03T18:03:18.973Z,32.00
2018-07-03T18:08:15.340Z,31.90
2018-07-03T18:10:43.644Z,31.80
2018-07-03T18:13:11.919Z,31.80
2018-07-03T18:15:40.245Z,31.80
2018-07-03T18:18:08.591Z,31.80
2018-07-03T18:20:36.930Z,31.80
2018-07-03T18:23:05.276Z,31.60
2018-07-03T18:25:33.632Z,31.60
2018-07-03T18:28:02.084Z,31.60
2018-07-03T18:30:31.230Z,31.60
2018-07-03T18:32:59.678Z,31.60
2018-07-03T18:35:27.940Z,31.50
2018-07-03T18:37:56.213Z,31.50
2018-07-03T18:40:24.562Z,31.50
2018-07-03T18:42:52.846Z,31.50
2018-07-03T18:45:21.077Z,31.40
2018-07-03T18:47:49.404Z,31.40
2018-07-03T18:50:17.734Z,31.40
2018-07-03T18:55:14.138Z,31.30
2018-07-03T18:57:42.425Z,31.30
2018-07-03T19:00:10.683Z,31.30
2018-07-03T19:02:38.997Z,31.20
2018-07-03T19:05:07.377Z,31.20
2018-07-03T19:07:35.680Z,31.20
2018-07-03T19:10:04.029Z,31.10
2018-07-03T19:12:32.269Z,31.10
2018-07-03T19:15:00.548Z,31.00
2018-07-03T19:17:28.845Z,31.00
2018-07-03T19:19:57.149Z,30.90
2018-07-03T19:22:25.414Z,30.90
2018-07-03T19:24:53.729Z,30.90
2018-07-03T19:27:21.985Z,30.80
2018-07-03T19:29:50.233Z,30.80
2018-07-03T19:32:18.480Z,30.80
2018-07-03T19:34:46.769Z,30.70
2018-07-03T19:37:15.026Z,30.70
2018-07-03T19:39:43.374Z,30.70
2018-07-03T19:42:11.675Z,30.60
2018-07-03T19:44:39.881Z,30.60
2018-07-03T19:47:08.261Z,30.60
2018-07-03T19:49:36.539Z,30.50
2018-07-03T19:52:04.870Z,30.50
2018-07-03T19:54:33.163Z,30.40
2018-07-03T19:57:01.450Z,30.40
2018-07-03T19:59:29.786Z,30.40
2018-07-03T20:01:58.162Z,30.30
2018-07-03T20:04:26.459Z,30.30
2018-07-03T20:06:54.871Z,30.20
2018-07-03T20:09:23.110Z,30.20
2018-07-03T20:11:51.428Z,30.20
2018-07-03T20:14:19.696Z,30.10
2018-07-03T20:16:47.985Z,30.10
2018-07-03T20:19:16.661Z,30.10
2018-07-03T20:21:46.207Z,30.10
2018-07-03T20:24:15.441Z,30.00
2018-07-03T20:26:43.754Z,29.90
2018-07-03T20:29:12.808Z,29.90
2018-07-03T20:31:41.134Z,29.80
2018-07-03T20:34:09.443Z,29.80
2018-07-03T20:39:07.975Z,29.70
2018-07-03T20:41:36.349Z,29.70
2018-07-03T20:44:04.733Z,29.60
2018-07-03T20:46:33.025Z,29.60
2018-07-03T20:49:01.380Z,29.60
2018-07-03T20:51:29.635Z,29.50
2018-07-03T20:53:57.886Z,29.50
2018-07-03T20:56:26.150Z,29.50
2018-07-03T20:58:54.405Z,29.40
2018-07-03T21:01:22.665Z,29.40
2018-07-03T21:03:50.958Z,29.40
2018-07-03T21:06:19.399Z,29.30
2018-07-03T21:08:47.578Z,29.30
2018-07-03T21:11:15.838Z,29.30
2018-07-03T21:13:44.144Z,29.20
2018-07-03T21:16:12.448Z,29.20
2018-07-03T21:18:40.717Z,29.20
2018-07-03T21:21:08.983Z,29.10
2018-07-03T21:23:37.235Z,29.10
2018-07-03T21:26:05.842Z,29.10
2018-07-03T21:28:34.099Z,29.10
2018-07-03T21:31:02.400Z,29.00
2018-07-03T21:33:30.671Z,29.00
2018-07-03T21:35:58.960Z,28.90
2018-07-03T21:38:27.309Z,28.90
2018-07-03T21:40:55.600Z,28.90
2018-07-03T21:43:23.885Z,28.90
2018-07-03T21:45:52.222Z,28.80
2018-07-03T21:48:20.529Z,28.80
2018-07-03T21:50:48.948Z,28.80
2018-07-03T21:55:45.644Z,28.70
2018-07-03T21:58:13.971Z,28.70
2018-07-03T22:00:42.497Z,28.60
2018-07-03T22:03:11.775Z,28.60
2018-07-03T22:05:40.660Z,28.60
2018-07-03T22:08:09.033Z,28.60
2018-07-03T22:10:37.361Z,28.50
2018-07-03T22:13:05.646Z,28.50
2018-07-03T22:15:33.945Z,28.50
2018-07-03T22:18:02.447Z,28.40
2018-07-03T22:20:30.701Z,28.40
2018-07-03T22:22:59.123Z,28.40
2018-07-03T22:25:27.430Z,28.30
2018-07-03T22:27:55.709Z,28.30
2018-07-03T22:30:24.097Z,28.30
2018-07-03T22:32:52.593Z,28.20
2018-07-03T22:35:20.894Z,28.20
2018-07-03T22:37:49.157Z,28.20
2018-07-03T22:40:17.461Z,28.10
2018-07-03T22:42:45.805Z,28.10
2018-07-03T22:45:14.219Z,28.10
2018-07-03T22:47:42.470Z,28.00
2018-07-03T22:50:10.881Z,27.90
2018-07-03T22:52:39.182Z,27.90
2018-07-03T22:55:07.471Z,27.90
2018-07-03T22:57:35.816Z,27.90
2018-07-03T23:00:04.225Z,27.80
2018-07-03T23:02:32.527Z,27.80
2018-07-03T23:05:00.805Z,27.80
2018-07-03T23:07:29.081Z,27.80
2018-07-03T23:09:57.358Z,27.70
2018-07-03T23:12:25.708Z,27.70
2018-07-03T23:14:53.969Z,27.60
2018-07-03T23:17:22.435Z,27.60
2018-07-03T23:19:50.693Z,27.60
2018-07-03T23:22:19.098Z,27.60
2018-07-03T23:24:47.370Z,27.50
2018-07-03T23:27:15.752Z,27.50
2018-07-03T23:29:44.039Z,27.40
2018-07-03T23:32:12.750Z,27.40
2018-07-03T23:34:41.783Z,27.40
2018-07-03T23:37:10.465Z,27.30
2018-07-03T23:39:38.826Z,27.30
2018-07-03T23:42:07.118Z,27.20
2018-07-03T23:44:35.429Z,27.20
2018-07-03T23:47:14.969Z,27.20
2018-07-03T23:49:54.695Z,27.20
2018-07-03T23:52:34.406Z,27.20
2018-07-03T23:55:14.018Z,27.10
2018-07-03T23:57:53.570Z,27.00
